createdAt,value
2023-03-20T00:02:01.294Z,11.59
2023-03-20T00:04:29.695Z,11.72
2023-03-20T00:06:56.283Z,11.67
2023-03-20T00:09:23.256Z,11.76
2023-03-20T00:11:51.763Z,11.63
2023-03-20T00:14:22.378Z,11.49
2023-03-20T00:16:49.805Z,11.61
2023-03-20T00:19:17.823Z,11.47
2023-03-20T00:21:46.657Z,11.67
2023-03-20T00:24:13.950Z,11.59
2023-03-20T00:26:41.118Z,11.59
2023-03-20T00:29:10.433Z,11.27
2023-03-20T00:31:39.483Z,11.54
2023-03-20T00:34:13.020Z,11.60
2023-03-20T00:36:39.644Z,11.51
2023-03-20T00:39:06.990Z,10.91
2023-03-20T00:41:39.660Z,11.56
2023-03-20T00:44:21.394Z,11.35
2023-03-20T00:46:53.377Z,11.30
2023-03-20T00:49:24.638Z,11.48
2023-03-20T00:51:51.451Z,11.51
2023-03-20T00:54:18.422Z,11.07
2023-03-20T00:56:56.046Z,11.32
2023-03-20T00:59:25.740Z,11.48
2023-03-20T01:01:52.520Z,11.42
2023-03-20T01:04:21.198Z,11.33
2023-03-20T01:06:48.305Z,11.02
2023-03-20T01:09:14.773Z,11.56
2023-03-20T01:11:41.921Z,11.36
2023-03-20T01:14:14.657Z,11.16
2023-03-20T01:16:41.413Z,11.08
2023-03-20T01:19:12.216Z,11.10
2023-03-20T01:21:38.695Z,11.47
2023-03-20T01:24:05.623Z,11.17
2023-03-20T01:26:36.713Z,11.54
2023-03-20T01:29:16.461Z,11.33
2023-03-20T01:31:42.980Z,11.25
2023-03-20T01:34:10.980Z,11.27
2023-03-20T01:36:38.594Z,11.47
2023-03-20T01:39:05.566Z,11.56
2023-03-20T01:41:33.004Z,11.59
2023-03-20T01:44:06.941Z,11.57
2023-03-20T01:46:37.010Z,11.45
2023-03-20T01:49:29.715Z,11.45
2023-03-20T01:51:57.261Z,11.21
2023-03-20T01:54:32.435Z,11.36
2023-03-20T01:57:18.668Z,11.30
2023-03-20T01:59:49.938Z,11.27
2023-03-20T02:02:21.601Z,11.27
2023-03-20T02:04:52.593Z,11.32
2023-03-20T02:07:21.469Z,11.19
2023-03-20T02:09:49.700Z,11.13
2023-03-20T02:12:17.656Z,10.94
2023-03-20T02:14:47.009Z,11.41
2023-03-20T02:17:14.546Z,11.38
2023-03-20T02:19:58.367Z,11.64
2023-03-20T02:22:56.127Z,11.53
2023-03-20T02:26:02.253Z,11.39
2023-03-20T02:29:03.571Z,11.04
2023-03-20T02:31:43.802Z,11.00
2023-03-20T02:34:39.950Z,11.11
2023-03-20T02:38:03.674Z,11.18
2023-03-20T02:40:39.695Z,9.99
2023-03-20T02:43:19.150Z,11.12
2023-03-20T02:46:02.893Z,10.76
2023-03-20T02:48:48.305Z,10.96
2023-03-20T02:51:24.814Z,10.99
2023-03-20T02:54:05.071Z,10.90
2023-03-20T02:56:51.389Z,10.85
2023-03-20T02:59:29.298Z,10.98
2023-03-20T03:02:07.524Z,10.74
2023-03-20T03:04:44.829Z,10.79
2023-03-20T03:07:14.810Z,10.81
2023-03-20T03:09:48.687Z,10.70
2023-03-20T03:12:21.270Z,10.44
2023-03-20T03:14:53.051Z,10.59
2023-03-20T03:17:23.610Z,10.22
2023-03-20T03:19:55.129Z,10.24
2023-03-20T03:22:21.746Z,10.41
2023-03-20T03:24:53.634Z,10.59
2023-03-20T03:27:25.618Z,10.40
2023-03-20T03:30:01.939Z,10.34
2023-03-20T03:32:46.560Z,10.39
2023-03-20T03:35:28.242Z,10.34
2023-03-20T03:38:02.014Z,10.47
2023-03-20T03:40:35.756Z,10.01
2023-03-20T03:43:15.364Z,10.07
2023-03-20T03:46:01.138Z,10.39
2023-03-20T03:48:34.190Z,10.46
2023-03-20T03:51:07.848Z,10.43
2023-03-20T03:53:43.117Z,10.51
2023-03-20T03:56:13.095Z,10.38
2023-03-20T03:58:48.437Z,10.66
2023-03-20T04:01:17.845Z,10.44
2023-03-20T04:03:52.415Z,10.61
2023-03-20T04:06:20.375Z,10.28
2023-03-20T04:08:46.923Z,10.19
2023-03-20T04:11:21.506Z,10.24
2023-03-20T04:13:49.592Z,10.59
2023-03-20T04:16:17.921Z,10.60
2023-03-20T04:18:45.251Z,10.32
2023-03-20T04:21:12.382Z,10.41
2023-03-20T04:23:39.130Z,10.28
2023-03-20T04:26:06.332Z,10.20
2023-03-20T04:28:33.277Z,10.01
2023-03-20T04:31:01.702Z,10.44
2023-03-20T04:33:28.971Z,10.57
2023-03-20T04:35:56.336Z,10.35
2023-03-20T04:38:24.140Z,10.21
2023-03-20T04:40:51.231Z,10.23
2023-03-20T04:43:17.991Z,10.34
2023-03-20T04:45:44.712Z,10.53
2023-03-20T04:48:11.249Z,10.20
2023-03-20T04:50:37.728Z,10.29
2023-03-20T04:53:07.275Z,10.66
2023-03-20T04:55:35.560Z,10.70
2023-03-20T04:58:02.192Z,10.05
2023-03-20T05:00:28.667Z,10.01
2023-03-20T05:02:55.383Z,9.86
2023-03-20T05:05:22.476Z,9.97
2023-03-20T05:07:49.822Z,9.65
2023-03-20T05:10:16.637Z,9.90
2023-03-20T05:12:43.335Z,9.55
2023-03-20T05:15:10.418Z,10.08
2023-03-20T05:17:36.958Z,10.38
2023-03-20T05:20:03.722Z,10.13
2023-03-20T05:22:30.235Z,10.10
2023-03-20T05:24:56.829Z,9.59
2023-03-20T05:27:23.283Z,10.13
2023-03-20T05:29:49.765Z,10.04
2023-03-20T05:32:16.228Z,9.96
2023-03-20T05:34:42.751Z,9.98
2023-03-20T05:37:09.554Z,9.86
2023-03-20T05:39:36.198Z,9.94
2023-03-20T05:42:02.799Z,9.99
2023-03-20T05:44:29.281Z,10.14
2023-03-20T05:46:58.269Z,9.93
2023-03-20T05:49:24.711Z,10.13
2023-03-20T05:51:51.177Z,9.63
2023-03-20T05:54:18.291Z,9.99
2023-03-20T05:56:44.941Z,10.20
2023-03-20T05:59:12.241Z,10.31
2023-03-20T06:01:38.718Z,9.58
2023-03-20T06:04:05.428Z,9.99
2023-03-20T06:06:31.951Z,10.09
2023-03-20T06:08:58.413Z,10.29
2023-03-20T06:11:25.040Z,10.25
2023-03-20T06:13:54.611Z,10.23
2023-03-20T06:16:21.573Z,10.02
2023-03-20T06:18:49.200Z,10.01
2023-03-20T06:21:15.917Z,10.26
2023-03-20T06:23:42.425Z,10.34
2023-03-20T06:26:09.005Z,10.15
2023-03-20T06:28:35.917Z,10.08
2023-03-20T06:31:02.549Z,10.21
2023-03-20T06:33:29.165Z,10.39
2023-03-20T06:35:55.984Z,10.38
2023-03-20T06:38:22.571Z,10.31
2023-03-20T06:40:49.161Z,9.40
2023-03-20T06:43:15.897Z,10.44
2023-03-20T06:45:42.414Z,10.03
2023-03-20T06:48:09.455Z,9.90
2023-03-20T06:50:36.490Z,10.12
2023-03-20T06:53:03.663Z,10.18
2023-03-20T06:55:31.235Z,10.38
2023-03-20T06:57:57.747Z,10.51
2023-03-20T07:00:24.552Z,10.70
2023-03-20T07:02:51.113Z,10.65
2023-03-20T07:05:18.444Z,10.46
2023-03-20T07:07:45.002Z,10.56
2023-03-20T07:10:12.628Z,10.65
2023-03-20T07:12:39.649Z,10.21
2023-03-20T07:15:06.828Z,10.31
2023-03-20T07:17:33.429Z,10.72
2023-03-20T07:19:59.896Z,10.07
2023-03-20T07:22:28.265Z,10.37
2023-03-20T07:24:54.731Z,10.26
2023-03-20T07:27:21.324Z,10.25
2023-03-20T07:29:47.840Z,9.78
2023-03-20T07:32:14.449Z,10.04
2023-03-20T07:34:41.105Z,10.29
2023-03-20T07:37:07.881Z,10.42
2023-03-20T07:39:34.552Z,10.69
2023-03-20T07:42:01.081Z,10.41
2023-03-20T07:44:27.754Z,10.24
2023-03-20T07:46:54.283Z,10.48
2023-03-20T07:49:21.142Z,10.61
2023-03-20T07:51:49.371Z,10.74
2023-03-20T07:54:16.922Z,10.67
2023-03-20T07:56:43.662Z,10.54
2023-03-20T07:59:10.275Z,11.05
2023-03-20T08:01:36.915Z,10.81
2023-03-20T08:04:03.558Z,11.26
2023-03-20T08:06:30.325Z,11.06
2023-03-20T08:08:57.091Z,10.72
2023-03-20T08:11:23.813Z,10.88
2023-03-20T08:13:50.587Z,10.64
2023-03-20T08:16:17.106Z,10.56
2023-03-20T08:18:43.640Z,10.51
2023-03-20T08:21:11.466Z,10.62
2023-03-20T08:23:37.998Z,10.82
2023-03-20T08:26:04.574Z,10.62
2023-03-20T08:28:46.628Z,10.76
2023-03-20T08:31:14.216Z,10.86
2023-03-20T08:33:41.156Z,10.53
2023-03-20T08:36:08.641Z,10.24
2023-03-20T08:38:35.973Z,10.56
2023-03-20T08:41:02.571Z,10.38
2023-03-20T08:43:29.437Z,10.59
2023-03-20T08:45:56.276Z,10.01
2023-03-20T08:48:22.799Z,10.51
2023-03-20T08:50:49.612Z,10.85
2023-03-20T08:53:16.186Z,11.07
2023-03-20T08:55:48.422Z,10.93
2023-03-20T08:58:14.924Z,10.99
2023-03-20T09:00:42.171Z,11.18
2023-03-20T09:03:14.753Z,11.06
2023-03-20T09:05:44.373Z,11.37
2023-03-20T09:08:10.981Z,10.86
2023-03-20T09:10:37.488Z,11.01
2023-03-20T09:13:19.580Z,11.50
2023-03-20T09:15:50.305Z,11.36
2023-03-20T09:18:17.310Z,10.94
2023-03-20T09:20:44.268Z,10.79
2023-03-20T09:23:11.310Z,11.05
2023-03-20T09:25:38.001Z,10.72
2023-03-20T09:28:04.603Z,11.08
2023-03-20T09:30:31.390Z,11.12
2023-03-20T09:32:58.020Z,10.94
2023-03-20T09:35:24.594Z,10.79
2023-03-20T09:37:51.076Z,10.98
2023-03-20T09:40:49.788Z,10.82
2023-03-20T09:43:35.442Z,11.51
2023-03-20T09:46:17.104Z,11.66
2023-03-20T09:49:15.169Z,11.83
2023-03-20T09:51:56.060Z,11.46
2023-03-20T09:54:52.670Z,11.54
2023-03-20T09:57:34.911Z,11.18
2023-03-20T10:00:05.836Z,11.29
2023-03-20T10:02:50.068Z,11.66
2023-03-20T10:05:39.216Z,11.89
2023-03-20T10:08:11.249Z,11.94
2023-03-20T10:10:49.491Z,11.97
2023-03-20T10:13:37.174Z,11.47
2023-03-20T10:16:32.889Z,11.24
2023-03-20T10:19:13.666Z,11.06
2023-03-20T10:21:45.952Z,11.49
2023-03-20T10:24:19.531Z,11.48
2023-03-20T10:26:50.688Z,11.63
2023-03-20T10:29:25.718Z,11.30
2023-03-20T10:32:17.872Z,11.50
2023-03-20T10:34:58.460Z,11.14
2023-03-20T10:38:07.822Z,11.42
2023-03-20T10:40:38.694Z,11.43
2023-03-20T10:43:18.384Z,10.14
2023-03-20T10:45:49.066Z,11.37
2023-03-20T10:48:24.791Z,11.32
2023-03-20T10:50:55.688Z,10.80
2023-03-20T10:53:32.317Z,11.07
2023-03-20T10:56:05.340Z,11.00
2023-03-20T10:58:37.273Z,11.18
2023-03-20T11:01:04.013Z,11.56
2023-03-20T11:03:32.967Z,11.67
2023-03-20T11:06:09.813Z,11.99
2023-03-20T11:08:40.968Z,12.14
2023-03-20T11:11:07.966Z,12.16
2023-03-20T11:13:37.615Z,12.06
2023-03-20T11:16:10.112Z,11.76
2023-03-20T11:18:36.989Z,11.72
2023-03-20T11:21:03.805Z,12.26
2023-03-20T11:23:34.385Z,12.33
2023-03-20T11:26:04.637Z,11.86
2023-03-20T11:28:43.028Z,12.00
2023-03-20T11:31:17.542Z,11.94
2023-03-20T11:33:46.957Z,12.21
2023-03-20T11:36:33.287Z,12.28
2023-03-20T11:39:12.172Z,12.40
2023-03-20T11:41:47.826Z,11.94
2023-03-20T11:44:27.066Z,12.11
2023-03-20T11:47:12.215Z,11.77
2023-03-20T11:49:59.479Z,11.57
2023-03-20T11:52:32.700Z,11.30
2023-03-20T11:55:03.299Z,11.71
2023-03-20T11:57:40.603Z,12.15
2023-03-20T12:00:17.197Z,12.34
2023-03-20T12:02:44.815Z,12.27
2023-03-20T12:05:37.195Z,12.35
2023-03-20T12:08:18.254Z,12.00
2023-03-20T12:10:54.031Z,12.18
2023-03-20T12:13:27.430Z,12.17
2023-03-20T12:16:04.538Z,12.32
2023-03-20T12:18:52.532Z,12.29
2023-03-20T12:21:57.361Z,12.43
2023-03-20T12:24:34.195Z,12.29
2023-03-20T12:27:16.369Z,12.08
2023-03-20T12:29:56.675Z,12.25
2023-03-20T12:33:02.046Z,12.35
2023-03-20T12:35:34.387Z,12.10
2023-03-20T12:38:00.960Z,11.42
2023-03-20T12:40:43.554Z,11.82
2023-03-20T12:43:15.932Z,11.47
2023-03-20T12:45:50.274Z,11.84
2023-03-20T12:48:47.016Z,11.82
2023-03-20T12:51:22.955Z,12.42
2023-03-20T12:54:08.991Z,13.01
2023-03-20T12:56:48.174Z,13.26
2023-03-20T12:59:43.802Z,13.43
2023-03-20T13:02:22.822Z,13.83
2023-03-20T13:05:07.854Z,14.19
2023-03-20T13:08:08.632Z,14.22
2023-03-20T13:10:39.307Z,14.14
2023-03-20T13:13:42.514Z,14.16
2023-03-20T13:16:12.709Z,13.41
2023-03-20T13:18:53.358Z,13.50
2023-03-20T13:21:33.392Z,13.14
2023-03-20T13:24:13.409Z,13.17
2023-03-20T13:26:50.409Z,12.55
2023-03-20T13:29:28.137Z,12.90
2023-03-20T13:32:10.586Z,12.70
2023-03-20T13:34:54.326Z,12.23
2023-03-20T13:37:36.180Z,12.38
2023-03-20T13:40:11.691Z,12.68
2023-03-20T13:43:02.491Z,12.54
2023-03-20T13:45:38.850Z,12.30
2023-03-20T13:48:26.482Z,12.59
2023-03-20T13:51:05.576Z,12.82
2023-03-20T13:53:47.404Z,12.89
2023-03-20T13:56:40.073Z,12.61
2023-03-20T13:59:26.185Z,12.74
2023-03-20T14:02:11.896Z,12.56
2023-03-20T14:04:39.360Z,12.40
2023-03-20T14:07:36.115Z,12.52
2023-03-20T14:10:22.811Z,12.08
2023-03-20T14:12:53.930Z,11.98
2023-03-20T14:15:21.361Z,11.89
2023-03-20T14:17:51.206Z,12.15
2023-03-20T14:20:29.640Z,11.94
2023-03-20T14:22:57.771Z,11.79
2023-03-20T14:25:24.951Z,12.12
2023-03-20T14:27:56.426Z,12.17
2023-03-20T14:30:32.124Z,12.23
2023-03-20T14:33:05.515Z,12.53
2023-03-20T14:35:38.233Z,12.36
2023-03-20T14:38:39.179Z,12.60
2023-03-20T14:41:28.717Z,12.60
2023-03-20T14:44:06.232Z,12.58
2023-03-20T14:46:51.497Z,12.37
2023-03-20T14:49:33.281Z,12.30
2023-03-20T14:52:20.875Z,12.34
2023-03-20T14:54:54.495Z,12.58
2023-03-20T14:57:48.950Z,12.58
2023-03-20T15:00:22.840Z,12.19
2023-03-20T15:02:52.818Z,12.23
2023-03-20T15:05:29.661Z,12.43
2023-03-20T15:08:03.144Z,12.22
2023-03-20T15:10:29.698Z,12.26
2023-03-20T15:12:58.267Z,12.18
2023-03-20T15:15:31.674Z,12.11
2023-03-20T15:18:14.345Z,12.13
2023-03-20T15:20:44.755Z,12.20
2023-03-20T15:23:11.235Z,11.85
2023-03-20T15:25:45.684Z,11.82
2023-03-20T15:28:17.956Z,11.93
2023-03-20T15:30:47.023Z,11.80
2023-03-20T15:33:35.029Z,12.40
2023-03-20T15:36:17.197Z,12.57
2023-03-20T15:38:45.006Z,12.22
2023-03-20T15:41:24.565Z,12.36
2023-03-20T15:43:51.291Z,12.31
2023-03-20T15:46:19.646Z,12.36
2023-03-20T15:48:49.879Z,11.97
2023-03-20T15:51:18.579Z,11.71
2023-03-20T15:53:48.526Z,11.90
2023-03-20T15:56:19.682Z,11.87
2023-03-20T15:58:50.093Z,11.67
2023-03-20T16:01:25.763Z,11.66
2023-03-20T16:03:58.161Z,11.96
2023-03-20T16:06:25.564Z,11.41
2023-03-20T16:09:01.224Z,11.66
2023-03-20T16:11:38.307Z,11.16
2023-03-20T16:14:07.273Z,11.62
2023-03-20T16:16:37.689Z,11.40
2023-03-20T16:19:07.983Z,11.02
2023-03-20T16:21:38.962Z,11.50
2023-03-20T16:24:09.225Z,11.30
2023-03-20T16:26:42.780Z,11.57
2023-03-20T16:29:13.373Z,11.47
2023-03-20T16:31:47.558Z,11.81
2023-03-20T16:34:22.732Z,11.84
2023-03-20T16:36:53.470Z,11.37
2023-03-20T16:39:23.260Z,11.81
2023-03-20T16:41:57.760Z,11.77
2023-03-20T16:44:32.465Z,11.84
2023-03-20T16:47:18.438Z,11.61
2023-03-20T16:49:45.090Z,11.83
2023-03-20T16:52:16.715Z,11.67
2023-03-20T16:54:44.603Z,11.77
2023-03-20T16:57:17.337Z,11.62
2023-03-20T16:59:44.099Z,11.70
2023-03-20T17:02:27.943Z,11.70
2023-03-20T17:04:56.805Z,11.77
2023-03-20T17:07:28.061Z,11.77
2023-03-20T17:10:01.677Z,11.73
2023-03-20T17:12:32.676Z,11.73
2023-03-20T17:14:59.285Z,11.71
2023-03-20T17:17:26.472Z,11.80
2023-03-20T17:19:53.303Z,11.74
2023-03-20T17:22:22.654Z,11.50
2023-03-20T17:24:49.838Z,11.78
2023-03-20T17:27:18.382Z,11.86
2023-03-20T17:29:46.666Z,11.85
2023-03-20T17:32:19.286Z,11.80
2023-03-20T17:34:46.098Z,11.62
2023-03-20T17:37:22.578Z,11.76
2023-03-20T17:39:49.178Z,11.70
2023-03-20T17:42:22.419Z,11.77
2023-03-20T17:44:49.103Z,11.08
2023-03-20T17:47:21.219Z,11.66
2023-03-20T17:49:48.765Z,11.10
2023-03-20T17:52:17.990Z,11.27
2023-03-20T17:54:45.543Z,11.09
2023-03-20T17:57:23.924Z,11.49
2023-03-20T17:59:50.687Z,11.04
2023-03-20T18:02:18.512Z,10.82
2023-03-20T18:04:48.441Z,11.26
2023-03-20T18:07:16.785Z,11.15
2023-03-20T18:09:44.721Z,11.04
2023-03-20T18:12:15.441Z,11.15
2023-03-20T18:14:43.014Z,11.13
2023-03-20T18:17:12.301Z,11.17
2023-03-20T18:19:39.176Z,11.14
2023-03-20T18:22:05.806Z,10.75
2023-03-20T18:24:32.645Z,10.81
2023-03-20T18:26:59.869Z,10.81
2023-03-20T18:29:26.735Z,10.88
2023-03-20T18:31:53.549Z,10.67
2023-03-20T18:34:20.311Z,10.54
2023-03-20T18:36:46.779Z,10.47
2023-03-20T18:39:21.749Z,10.64
2023-03-20T18:41:49.022Z,10.53
2023-03-20T18:44:15.618Z,10.83
2023-03-20T18:46:45.581Z,10.84
2023-03-20T18:49:17.203Z,10.91
2023-03-20T18:51:44.210Z,10.97
2023-03-20T18:54:11.056Z,11.13
2023-03-20T18:56:37.993Z,10.53
2023-03-20T18:59:07.908Z,10.32
2023-03-20T19:01:35.977Z,10.49
2023-03-20T19:04:02.783Z,10.44
2023-03-20T19:06:32.471Z,9.93
2023-03-20T19:08:59.300Z,10.48
2023-03-20T19:11:25.909Z,10.45
2023-03-20T19:13:53.782Z,10.26
2023-03-20T19:16:25.882Z,10.31
2023-03-20T19:18:54.494Z,10.48
2023-03-20T19:21:26.319Z,10.54
2023-03-20T19:23:54.866Z,10.47
2023-03-20T19:26:24.493Z,10.37
2023-03-20T19:28:51.022Z,10.21
2023-03-20T19:31:17.622Z,9.82
2023-03-20T19:33:44.545Z,10.37
2023-03-20T19:36:27.254Z,10.24
2023-03-20T19:38:54.692Z,10.24
2023-03-20T19:41:21.477Z,9.88
2023-03-20T19:43:52.846Z,9.86
2023-03-20T19:46:40.284Z,10.49
2023-03-20T19:49:20.276Z,10.07
2023-03-20T19:51:48.137Z,9.75
2023-03-20T19:54:14.639Z,10.05
2023-03-20T19:56:41.157Z,10.31
2023-03-20T19:59:08.802Z,10.51
2023-03-20T20:01:36.343Z,10.48
2023-03-20T20:04:04.190Z,9.98
2023-03-20T20:06:32.761Z,9.99
2023-03-20T20:09:01.424Z,9.45
2023-03-20T20:11:28.670Z,9.96
2023-03-20T20:14:14.639Z,10.22
2023-03-20T20:16:43.141Z,9.80
2023-03-20T20:19:10.716Z,9.83
2023-03-20T20:24:24.510Z,9.75
2023-03-20T20:27:00.091Z,9.77
2023-03-20T20:29:33.962Z,9.70
2023-03-20T20:32:00.554Z,9.67
2023-03-20T20:40:00.295Z,9.74
2023-03-20T20:42:26.936Z,9.93
2023-03-20T20:44:53.394Z,10.02
2023-03-20T20:47:20.008Z,9.59
2023-03-20T20:49:47.569Z,9.88
2023-03-20T20:52:15.743Z,10.11
2023-03-20T20:54:42.349Z,9.96
2023-03-20T20:57:11.080Z,9.92
2023-03-20T20:59:38.679Z,9.93
2023-03-20T21:02:12.210Z,9.98
2023-03-20T21:04:40.542Z,9.13
2023-03-20T21:07:11.390Z,10.17
2023-03-20T21:09:38.748Z,9.93
2023-03-20T21:12:06.019Z,10.09
2023-03-20T21:14:33.177Z,9.69
2023-03-20T21:17:01.414Z,10.03
2023-03-20T21:19:34.820Z,9.25
2023-03-20T21:22:01.745Z,9.42
2023-03-20T21:24:32.805Z,9.78
2023-03-20T21:27:01.274Z,10.06
2023-03-20T21:29:28.090Z,9.51
2023-03-20T21:31:54.742Z,9.58
2023-03-20T21:34:21.414Z,9.73
2023-03-20T21:36:49.091Z,9.33
2023-03-20T21:39:17.102Z,9.93
2023-03-20T21:41:44.196Z,9.43
2023-03-20T21:44:18.033Z,9.72
2023-03-20T21:56:02.532Z,9.75
2023-03-20T22:02:05.854Z,9.67
2023-03-20T22:04:14.535Z,9.66
2023-03-20T22:20:59.107Z,9.63
2023-03-20T22:40:37.042Z,10.13
2023-03-20T22:44:04.410Z,9.89
2023-03-20T22:45:34.445Z,9.68
2023-03-20T22:48:08.919Z,10.19
2023-03-20T22:50:36.366Z,10.09
2023-03-20T22:53:03.325Z,9.62
2023-03-20T22:55:30.315Z,9.86
2023-03-20T22:58:06.767Z,9.90
2023-03-20T23:00:34.308Z,10.08
2023-03-20T23:03:15.287Z,9.58
2023-03-20T23:05:44.400Z,9.50
2023-03-20T23:08:12.143Z,9.75
2023-03-20T23:10:43.880Z,9.86
2023-03-20T23:13:11.539Z,9.99
2023-03-20T23:15:38.269Z,9.88
2023-03-20T23:18:05.046Z,9.64
2023-03-20T23:20:31.957Z,9.56
2023-03-20T23:22:58.486Z,9.69
2023-03-20T23:25:38.124Z,9.84
2023-03-20T23:28:06.127Z,9.89
2023-03-20T23:30:43.534Z,9.97
2023-03-20T23:33:10.624Z,10.02
2023-03-20T23:35:37.147Z,9.97
2023-03-20T23:38:03.660Z,9.83
2023-03-20T23:40:31.073Z,9.95
2023-03-20T23:42:57.590Z,9.84
2023-03-20T23:45:24.078Z,9.85
2023-03-20T23:47:51.067Z,9.54
2023-03-20T23:50:36.880Z,9.51
2023-03-20T23:53:19.518Z,8.49
2023-03-20T23:55:55.277Z,9.71
2023-03-20T23:58:24.217Z,9.77
